Aérodrome :
LOGIN :

S'inscrire | Disclaimer

   EN    FR    IT 

 










Légende :    VFR   VFR Marginal   IFR   IFR Intensif   IFR Très Intensif
Visi : 
Plafond : 
>= 8 km
>= 3000ft
5 à 8 km
1000 à 3000 ft
1500m à 5 km
500 à 1000 ft
800 à 1500m
200 à 500 ft
< 800m
< 200 ft
Symboles :   Orages  Brouillard  Fortes neiges  Fortes précipitations  Vent > 20 kt
SIGMETs :   Divers  Orages  Givrage  Turbulence  Onde Orograph.  Cendres Volcan.







- Altitude de l'aérodrome : 112 ft
- Code IATA : SVQ


LEZL - Sevilla San Pablo

DERNIER METAR :
  • 211000Z 00000KT 0250 R27/0275N R09/0225N FG VV001 08/07 Q1032 NOSIG

METARs EXPIRÉS :
  • 210930Z 00000KT 0200 R27/0200N R09/0500N FG VV001 07/06 Q1032 NOSIG
  • 210900Z 00000KT 0200 R27/0275N R09/0700D FG VV001 06/06 Q1031 NOSIG
  • 210830Z 00000KT 0600 R27/1300D R09/1900U FG VV001 06/05 Q1031 NOSIG
  • 210818Z VRB01KT 0600 R27/0900N R09/1000N FG BKN001 05/05 Q1031 NOSIG
  • 210800Z VRB02KT 0700 R27/0550U R09/1000U FG FEW001 05/05 Q1030 NOSIG
  • 210730Z 00000KT 0200 R27/0275N R09/0150N FG VV001 05/05 Q1030 NOSIG

TAF TAF LEZL
Valide du 21 à 09h jusqu'au 22 à 09h UTC


210800Z 2109/2209 05004KT CAVOK TX18/2115Z TN06/2207Z
PROB40
TEMPO 2109/2111 4000 BR
PROB30
TEMPO 2109/2110 0200 FG VV001
Pas de NOTAMs connus pour ce terrain.



MET'MAP, la Météo Aéronautique d'un coup d'oeil ! - Copyright ORBIFLY Décembre 2007 - Disclaimer

ORBIFLY MET'MAP TEAM :

Programmation & Développement : Alexandra Zaïnal
Conception & Développement : Baudouin d'Aumeries
Co-Programmation & Développement : Marc-Olivier Méhu
Soutien technique & logistique : Manuel Goepfert

Contact : metmap@orbifly.com




SOURCES & CREDITS :

   NOAA